sensor_id;sensor_type;location;lat;lon;timestamp;P1;durP1;ratioP1;P2;durP2;ratioP2
69847;SDS011;57143;55.940;37.496;2022-12-29T00:01:55;6.55;;;1.13;;
69847;SDS011;57143;55.940;37.496;2022-12-29T00:04:22;3.70;;;0.50;;
69847;SDS011;57143;55.940;37.496;2022-12-29T00:06:49;3.92;;;0.60;;
69847;SDS011;57143;55.940;37.496;2022-12-29T00:09:18;2.10;;;0.40;;
69847;SDS011;57143;55.940;37.496;2022-12-29T00:11:47;4.25;;;0.63;;
69847;SDS011;57143;55.940;37.496;2022-12-29T00:14:15;6.60;;;0.85;;
69847;SDS011;57143;55.940;37.496;2022-12-29T00:16:59;4.40;;;0.83;;
69847;SDS011;57143;55.940;37.496;2022-12-29T00:19:27;4.20;;;0.60;;
69847;SDS011;57143;55.940;37.496;2022-12-29T00:22:12;2.33;;;0.40;;
69847;SDS011;57143;55.940;37.496;2022-12-29T00:24:57;3.55;;;0.60;;
69847;SDS011;57143;55.940;37.496;2022-12-29T00:27:43;2.40;;;0.40;;
69847;SDS011;57143;55.940;37.496;2022-12-29T00:30:28;3.03;;;0.50;;
69847;SDS011;57143;55.940;37.496;2022-12-29T00:33:13;3.05;;;0.50;;
69847;SDS011;57143;55.940;37.496;2022-12-29T00:36:00;3.20;;;0.43;;
69847;SDS011;57143;55.940;37.496;2022-12-29T00:38:30;5.60;;;0.70;;
69847;SDS011;57143;55.940;37.496;2022-12-29T00:41:16;1.88;;;0.35;;
69847;SDS011;57143;55.940;37.496;2022-12-29T00:44:02;3.37;;;0.47;;
69847;SDS011;57143;55.940;37.496;2022-12-29T00:46:32;3.28;;;0.52;;
69847;SDS011;57143;55.940;37.496;2022-12-29T00:49:01;4.85;;;0.75;;
69847;SDS011;57143;55.940;37.496;2022-12-29T00:51:48;4.68;;;0.50;;
69847;SDS011;57143;55.940;37.496;2022-12-29T00:54:16;2.35;;;0.45;;
69847;SDS011;57143;55.940;37.496;2022-12-29T00:56:45;5.43;;;0.43;;
69847;SDS011;57143;55.940;37.496;2022-12-29T00:59:15;3.22;;;0.77;;
69847;SDS011;57143;55.940;37.496;2022-12-29T01:01:43;3.55;;;0.60;;
69847;SDS011;57143;55.940;37.496;2022-12-29T01:04:11;6.18;;;0.65;;
69847;SDS011;57143;55.940;37.496;2022-12-29T01:06:39;3.42;;;0.50;;
69847;SDS011;57143;55.940;37.496;2022-12-29T01:09:07;8.13;;;0.60;;
69847;SDS011;57143;55.940;37.496;2022-12-29T01:11:52;3.63;;;0.40;;
69847;SDS011;57143;55.940;37.496;2022-12-29T01:14:21;7.30;;;0.60;;
69847;SDS011;57143;55.940;37.496;2022-12-29T01:16:49;4.22;;;0.70;;
69847;SDS011;57143;55.940;37.496;2022-12-29T01:19:17;2.70;;;0.50;;
69847;SDS011;57143;55.940;37.496;2022-12-29T01:21:45;4.33;;;0.60;;
69847;SDS011;57143;55.940;37.496;2022-12-29T01:24:13;5.90;;;0.60;;
69847;SDS011;57143;55.940;37.496;2022-12-29T01:26:41;2.05;;;0.30;;
69847;SDS011;57143;55.940;37.496;2022-12-29T01:29:08;3.72;;;0.65;;
69847;SDS011;57143;55.940;37.496;2022-12-29T01:31:37;4.68;;;0.40;;
69847;SDS011;57143;55.940;37.496;2022-12-29T01:34:04;4.00;;;0.60;;
69847;SDS011;57143;55.940;37.496;2022-12-29T01:36:32;2.58;;;0.40;;
69847;SDS011;57143;55.940;37.496;2022-12-29T01:39:00;3.92;;;0.70;;
69847;SDS011;57143;55.940;37.496;2022-12-29T01:41:27;3.33;;;0.60;;
69847;SDS011;57143;55.940;37.496;2022-12-29T01:43:55;3.92;;;0.68;;
69847;SDS011;57143;55.940;37.496;2022-12-29T01:46:25;7.67;;;0.57;;
69847;SDS011;57143;55.940;37.496;2022-12-29T01:48:57;6.25;;;0.85;;
69847;SDS011;57143;55.940;37.496;2022-12-29T01:51:31;6.90;;;0.75;;
69847;SDS011;57143;55.940;37.496;2022-12-29T01:54:02;5.65;;;0.40;;
69847;SDS011;57143;55.940;37.496;2022-12-29T01:56:35;5.00;;;0.85;;
69847;SDS011;57143;55.940;37.496;2022-12-29T01:59:04;3.23;;;0.50;;
69847;SDS011;57143;55.940;37.496;2022-12-29T02:01:36;7.43;;;1.40;;
69847;SDS011;57143;55.940;37.496;2022-12-29T02:04:05;5.72;;;0.90;;
69847;SDS011;57143;55.940;37.496;2022-12-29T02:06:36;6.72;;;0.60;;
69847;SDS011;57143;55.940;37.496;2022-12-29T02:09:08;4.22;;;0.60;;
69847;SDS011;57143;55.940;37.496;2022-12-29T02:11:35;9.23;;;0.60;;
69847;SDS011;57143;55.940;37.496;2022-12-29T02:14:07;6.38;;;0.77;;
69847;SDS011;57143;55.940;37.496;2022-12-29T02:16:39;7.50;;;0.80;;
69847;SDS011;57143;55.940;37.496;2022-12-29T02:19:27;4.18;;;0.65;;
69847;SDS011;57143;55.940;37.496;2022-12-29T02:22:17;3.88;;;0.70;;
69847;SDS011;57143;55.940;37.496;2022-12-29T02:25:04;3.93;;;0.60;;
69847;SDS011;57143;55.940;37.496;2022-12-29T02:27:58;4.90;;;0.90;;
69847;SDS011;57143;55.940;37.496;2022-12-29T02:30:46;6.60;;;0.88;;
69847;SDS011;57143;55.940;37.496;2022-12-29T02:33:28;7.95;;;0.88;;
69847;SDS011;57143;55.940;37.496;2022-12-29T02:36:06;6.55;;;0.57;;
69847;SDS011;57143;55.940;37.496;2022-12-29T02:38:43;8.33;;;0.60;;
69847;SDS011;57143;55.940;37.496;2022-12-29T02:41:22;5.88;;;0.77;;
69847;SDS011;57143;55.940;37.496;2022-12-29T02:43:57;6.05;;;0.80;;
69847;SDS011;57143;55.940;37.496;2022-12-29T02:46:33;5.43;;;0.75;;
69847;SDS011;57143;55.940;37.496;2022-12-29T02:49:05;3.78;;;0.60;;
69847;SDS011;57143;55.940;37.496;2022-12-29T02:51:40;5.10;;;0.97;;
69847;SDS011;57143;55.940;37.496;2022-12-29T02:54:12;3.58;;;0.70;;
69847;SDS011;57143;55.940;37.496;2022-12-29T02:56:57;5.25;;;0.88;;
69847;SDS011;57143;55.940;37.496;2022-12-29T02:59:24;5.25;;;0.90;;
69847;SDS011;57143;55.940;37.496;2022-12-29T03:07:56;3.88;;;0.60;;
69847;SDS011;57143;55.940;37.496;2022-12-29T03:10:34;7.47;;;0.88;;
69847;SDS011;57143;55.940;37.496;2022-12-29T03:13:12;4.05;;;0.80;;
69847;SDS011;57143;55.940;37.496;2022-12-29T03:16:07;4.55;;;0.50;;
69847;SDS011;57143;55.940;37.496;2022-12-29T03:18:46;5.33;;;0.83;;
69847;SDS011;57143;55.940;37.496;2022-12-29T03:21:22;6.72;;;0.98;;
69847;SDS011;57143;55.940;37.496;2022-12-29T03:24:10;7.47;;;1.20;;
69847;SDS011;57143;55.940;37.496;2022-12-29T03:26:37;8.18;;;1.08;;
69847;SDS011;57143;55.940;37.496;2022-12-29T03:29:07;8.27;;;1.00;;
69847;SDS011;57143;55.940;37.496;2022-12-29T03:31:36;5.30;;;0.90;;
69847;SDS011;57143;55.940;37.496;2022-12-29T03:34:06;3.17;;;0.50;;
69847;SDS011;57143;55.940;37.496;2022-12-29T03:36:38;7.03;;;1.02;;
69847;SDS011;57143;55.940;37.496;2022-12-29T03:39:11;7.43;;;1.75;;
69847;SDS011;57143;55.940;37.496;2022-12-29T03:41:40;2.95;;;0.45;;
69847;SDS011;57143;55.940;37.496;2022-12-29T03:44:10;6.37;;;0.93;;
69847;SDS011;57143;55.940;37.496;2022-12-29T03:46:38;5.78;;;0.65;;
69847;SDS011;57143;55.940;37.496;2022-12-29T03:49:07;5.35;;;0.90;;
69847;SDS011;57143;55.940;37.496;2022-12-29T03:51:34;2.72;;;0.52;;
69847;SDS011;57143;55.940;37.496;2022-12-29T03:54:02;7.10;;;1.10;;
69847;SDS011;57143;55.940;37.496;2022-12-29T03:56:29;6.30;;;0.90;;
69847;SDS011;57143;55.940;37.496;2022-12-29T03:58:56;5.32;;;0.70;;
69847;SDS011;57143;55.940;37.496;2022-12-29T04:01:23;6.35;;;1.08;;
69847;SDS011;57143;55.940;37.496;2022-12-29T04:03:51;3.95;;;0.80;;
69847;SDS011;57143;55.940;37.496;2022-12-29T04:06:19;8.18;;;1.10;;
69847;SDS011;57143;55.940;37.496;2022-12-29T04:08:46;4.67;;;0.70;;
69847;SDS011;57143;55.940;37.496;2022-12-29T04:11:14;7.25;;;1.00;;
69847;SDS011;57143;55.940;37.496;2022-12-29T04:13:41;6.47;;;0.80;;
69847;SDS011;57143;55.940;37.496;2022-12-29T04:16:08;6.35;;;1.00;;
69847;SDS011;57143;55.940;37.496;2022-12-29T04:18:35;5.25;;;1.23;;
69847;SDS011;57143;55.940;37.496;2022-12-29T04:21:03;6.43;;;1.27;;
69847;SDS011;57143;55.940;37.496;2022-12-29T04:23:32;6.75;;;1.02;;
69847;SDS011;57143;55.940;37.496;2022-12-29T04:26:01;7.15;;;1.00;;
69847;SDS011;57143;55.940;37.496;2022-12-29T04:28:29;10.68;;;1.17;;
69847;SDS011;57143;55.940;37.496;2022-12-29T04:30:56;7.22;;;1.40;;
69847;SDS011;57143;55.940;37.496;2022-12-29T04:33:23;5.30;;;0.97;;
69847;SDS011;57143;55.940;37.496;2022-12-29T04:35:51;3.83;;;0.85;;
69847;SDS011;57143;55.940;37.496;2022-12-29T04:38:20;9.18;;;1.55;;
69847;SDS011;57143;55.940;37.496;2022-12-29T04:40:49;5.38;;;1.20;;
69847;SDS011;57143;55.940;37.496;2022-12-29T04:43:16;4.80;;;1.10;;
69847;SDS011;57143;55.940;37.496;2022-12-29T04:45:45;5.77;;;1.23;;
69847;SDS011;57143;55.940;37.496;2022-12-29T04:48:12;7.18;;;1.10;;
69847;SDS011;57143;55.940;37.496;2022-12-29T04:50:40;4.40;;;1.00;;
69847;SDS011;57143;55.940;37.496;2022-12-29T04:53:07;7.47;;;0.98;;
69847;SDS011;57143;55.940;37.496;2022-12-29T04:55:34;7.72;;;1.25;;
69847;SDS011;57143;55.940;37.496;2022-12-29T04:58:03;6.03;;;1.10;;
69847;SDS011;57143;55.940;37.496;2022-12-29T05:00:30;9.00;;;1.15;;
69847;SDS011;57143;55.940;37.496;2022-12-29T05:02:58;7.50;;;1.50;;
69847;SDS011;57143;55.940;37.496;2022-12-29T05:05:25;7.35;;;0.98;;
69847;SDS011;57143;55.940;37.496;2022-12-29T05:07:52;7.88;;;1.27;;
69847;SDS011;57143;55.940;37.496;2022-12-29T05:10:19;5.03;;;0.93;;
69847;SDS011;57143;55.940;37.496;2022-12-29T05:12:47;6.93;;;1.10;;
69847;SDS011;57143;55.940;37.496;2022-12-29T05:15:15;4.97;;;1.35;;
69847;SDS011;57143;55.940;37.496;2022-12-29T05:17:43;4.95;;;0.90;;
69847;SDS011;57143;55.940;37.496;2022-12-29T05:20:10;7.20;;;1.17;;
69847;SDS011;57143;55.940;37.496;2022-12-29T05:22:37;6.80;;;1.40;;
69847;SDS011;57143;55.940;37.496;2022-12-29T05:25:05;4.80;;;0.85;;
69847;SDS011;57143;55.940;37.496;2022-12-29T05:27:32;7.10;;;1.40;;
69847;SDS011;57143;55.940;37.496;2022-12-29T05:29:59;4.10;;;0.68;;
69847;SDS011;57143;55.940;37.496;2022-12-29T05:32:28;5.78;;;0.70;;
69847;SDS011;57143;55.940;37.496;2022-12-29T05:34:55;5.83;;;1.00;;
69847;SDS011;57143;55.940;37.496;2022-12-29T05:37:22;6.30;;;0.88;;
69847;SDS011;57143;55.940;37.496;2022-12-29T05:39:50;7.88;;;1.52;;
69847;SDS011;57143;55.940;37.496;2022-12-29T05:42:17;5.35;;;0.70;;
69847;SDS011;57143;55.940;37.496;2022-12-29T05:44:44;7.25;;;0.80;;
69847;SDS011;57143;55.940;37.496;2022-12-29T05:47:11;4.93;;;0.73;;
69847;SDS011;57143;55.940;37.496;2022-12-29T05:49:40;5.90;;;1.33;;
69847;SDS011;57143;55.940;37.496;2022-12-29T05:52:07;6.63;;;1.13;;
69847;SDS011;57143;55.940;37.496;2022-12-29T05:54:34;6.10;;;1.38;;
69847;SDS011;57143;55.940;37.496;2022-12-29T05:57:02;5.60;;;1.15;;
69847;SDS011;57143;55.940;37.496;2022-12-29T05:59:29;6.60;;;1.13;;
69847;SDS011;57143;55.940;37.496;2022-12-29T06:01:56;7.15;;;1.00;;
69847;SDS011;57143;55.940;37.496;2022-12-29T06:04:23;4.90;;;1.02;;
69847;SDS011;57143;55.940;37.496;2022-12-29T06:06:52;6.38;;;1.40;;
69847;SDS011;57143;55.940;37.496;2022-12-29T06:09:19;5.38;;;0.95;;
69847;SDS011;57143;55.940;37.496;2022-12-29T06:11:46;6.97;;;1.30;;
69847;SDS011;57143;55.940;37.496;2022-12-29T06:14:13;5.60;;;1.30;;
69847;SDS011;57143;55.940;37.496;2022-12-29T06:16:40;8.43;;;1.42;;
69847;SDS011;57143;55.940;37.496;2022-12-29T06:19:08;5.45;;;1.13;;
69847;SDS011;57143;55.940;37.496;2022-12-29T06:21:35;9.18;;;1.70;;
69847;SDS011;57143;55.940;37.496;2022-12-29T06:24:04;6.67;;;1.33;;
69847;SDS011;57143;55.940;37.496;2022-12-29T06:26:32;7.25;;;1.13;;
69847;SDS011;57143;55.940;37.496;2022-12-29T06:28:59;5.53;;;1.00;;
69847;SDS011;57143;55.940;37.496;2022-12-29T06:31:28;6.82;;;1.20;;
69847;SDS011;57143;55.940;37.496;2022-12-29T06:33:55;7.55;;;1.58;;
69847;SDS011;57143;55.940;37.496;2022-12-29T06:36:22;6.00;;;1.20;;
69847;SDS011;57143;55.940;37.496;2022-12-29T06:38:49;9.10;;;1.00;;
69847;SDS011;57143;55.940;37.496;2022-12-29T06:41:19;5.32;;;1.23;;
69847;SDS011;57143;55.940;37.496;2022-12-29T06:43:46;8.30;;;1.13;;
69847;SDS011;57143;55.940;37.496;2022-12-29T06:46:13;5.70;;;1.10;;
69847;SDS011;57143;55.940;37.496;2022-12-29T06:48:41;4.93;;;0.87;;
69847;SDS011;57143;55.940;37.496;2022-12-29T06:51:08;8.07;;;1.63;;
69847;SDS011;57143;55.940;37.496;2022-12-29T06:53:35;6.15;;;1.42;;
69847;SDS011;57143;55.940;37.496;2022-12-29T06:56:03;6.63;;;1.65;;
69847;SDS011;57143;55.940;37.496;2022-12-29T06:58:32;7.35;;;1.80;;
69847;SDS011;57143;55.940;37.496;2022-12-29T07:00:59;6.80;;;1.13;;
69847;SDS011;57143;55.940;37.496;2022-12-29T07:03:26;6.47;;;1.50;;
69847;SDS011;57143;55.940;37.496;2022-12-29T07:05:53;5.30;;;1.30;;
69847;SDS011;57143;55.940;37.496;2022-12-29T07:08:23;7.20;;;0.90;;
69847;SDS011;57143;55.940;37.496;2022-12-29T07:10:50;7.68;;;1.58;;
69847;SDS011;57143;55.940;37.496;2022-12-29T07:13:17;6.67;;;1.60;;
69847;SDS011;57143;55.940;37.496;2022-12-29T07:15:46;8.50;;;2.00;;
69847;SDS011;57143;55.940;37.496;2022-12-29T07:18:13;8.68;;;2.10;;
69847;SDS011;57143;55.940;37.496;2022-12-29T07:20:40;5.72;;;1.40;;
69847;SDS011;57143;55.940;37.496;2022-12-29T07:23:07;7.28;;;1.73;;
69847;SDS011;57143;55.940;37.496;2022-12-29T07:25:35;7.67;;;1.87;;
69847;SDS011;57143;55.940;37.496;2022-12-29T07:28:02;8.00;;;2.15;;
69847;SDS011;57143;55.940;37.496;2022-12-29T07:30:30;7.30;;;1.92;;
69847;SDS011;57143;55.940;37.496;2022-12-29T07:32:58;10.27;;;2.28;;
69847;SDS011;57143;55.940;37.496;2022-12-29T07:35:25;9.43;;;2.22;;
69847;SDS011;57143;55.940;37.496;2022-12-29T07:37:52;9.73;;;2.30;;
69847;SDS011;57143;55.940;37.496;2022-12-29T07:40:20;11.07;;;2.13;;
69847;SDS011;57143;55.940;37.496;2022-12-29T07:42:47;8.95;;;3.00;;
69847;SDS011;57143;55.940;37.496;2022-12-29T07:45:14;6.10;;;1.75;;
69847;SDS011;57143;55.940;37.496;2022-12-29T07:47:41;10.60;;;2.88;;
69847;SDS011;57143;55.940;37.496;2022-12-29T07:50:10;9.73;;;2.50;;
69847;SDS011;57143;55.940;37.496;2022-12-29T07:52:37;8.43;;;2.58;;
69847;SDS011;57143;55.940;37.496;2022-12-29T07:55:05;8.38;;;2.03;;
69847;SDS011;57143;55.940;37.496;2022-12-29T07:57:33;9.60;;;2.38;;
69847;SDS011;57143;55.940;37.496;2022-12-29T08:00:00;7.20;;;1.75;;
69847;SDS011;57143;55.940;37.496;2022-12-29T08:02:30;8.17;;;1.80;;
69847;SDS011;57143;55.940;37.496;2022-12-29T08:04:57;8.40;;;2.10;;
69847;SDS011;57143;55.940;37.496;2022-12-29T08:07:26;8.60;;;2.20;;
69847;SDS011;57143;55.940;37.496;2022-12-29T08:09:54;7.47;;;2.35;;
69847;SDS011;57143;55.940;37.496;2022-12-29T08:12:21;6.43;;;2.20;;
69847;SDS011;57143;55.940;37.496;2022-12-29T08:14:48;7.33;;;2.20;;
69847;SDS011;57143;55.940;37.496;2022-12-29T08:17:15;7.13;;;2.00;;
69847;SDS011;57143;55.940;37.496;2022-12-29T08:19:42;8.02;;;2.13;;
69847;SDS011;57143;55.940;37.496;2022-12-29T08:22:10;9.88;;;3.08;;
69847;SDS011;57143;55.940;37.496;2022-12-29T08:24:38;8.63;;;2.38;;
69847;SDS011;57143;55.940;37.496;2022-12-29T08:27:05;9.70;;;2.40;;
69847;SDS011;57143;55.940;37.496;2022-12-29T08:29:32;9.82;;;2.42;;
69847;SDS011;57143;55.940;37.496;2022-12-29T08:32:00;10.10;;;3.13;;
69847;SDS011;57143;55.940;37.496;2022-12-29T08:34:27;11.68;;;2.15;;
69847;SDS011;57143;55.940;37.496;2022-12-29T08:36:54;10.70;;;2.60;;
69847;SDS011;57143;55.940;37.496;2022-12-29T08:39:22;9.83;;;2.77;;
69847;SDS011;57143;55.940;37.496;2022-12-29T08:41:51;9.82;;;2.83;;
69847;SDS011;57143;55.940;37.496;2022-12-29T08:44:18;9.77;;;3.05;;
69847;SDS011;57143;55.940;37.496;2022-12-29T08:46:45;8.88;;;2.55;;
69847;SDS011;57143;55.940;37.496;2022-12-29T08:49:13;8.02;;;2.42;;
69847;SDS011;57143;55.940;37.496;2022-12-29T08:51:40;8.53;;;2.33;;
69847;SDS011;57143;55.940;37.496;2022-12-29T08:54:07;10.23;;;2.47;;
69847;SDS011;57143;55.940;37.496;2022-12-29T08:56:34;8.23;;;2.15;;
69847;SDS011;57143;55.940;37.496;2022-12-29T08:59:03;8.50;;;2.47;;
69847;SDS011;57143;55.940;37.496;2022-12-29T09:01:30;11.15;;;3.50;;
69847;SDS011;57143;55.940;37.496;2022-12-29T09:03:58;9.97;;;2.77;;
69847;SDS011;57143;55.940;37.496;2022-12-29T09:06:26;7.53;;;2.17;;
69847;SDS011;57143;55.940;37.496;2022-12-29T09:08:53;7.93;;;2.80;;
69847;SDS011;57143;55.940;37.496;2022-12-29T09:11:21;7.60;;;2.55;;
69847;SDS011;57143;55.940;37.496;2022-12-29T09:13:49;8.65;;;2.00;;
69847;SDS011;57143;55.940;37.496;2022-12-29T09:16:20;8.77;;;2.20;;
69847;SDS011;57143;55.940;37.496;2022-12-29T09:18:48;8.27;;;2.67;;
69847;SDS011;57143;55.940;37.496;2022-12-29T09:21:15;9.77;;;2.92;;
69847;SDS011;57143;55.940;37.496;2022-12-29T09:23:43;6.70;;;2.33;;
69847;SDS011;57143;55.940;37.496;2022-12-29T09:26:10;4.50;;;1.65;;
69847;SDS011;57143;55.940;37.496;2022-12-29T09:28:38;7.80;;;2.23;;
69847;SDS011;57143;55.940;37.496;2022-12-29T09:31:05;8.43;;;2.28;;
69847;SDS011;57143;55.940;37.496;2022-12-29T09:33:34;8.25;;;2.30;;
69847;SDS011;57143;55.940;37.496;2022-12-29T09:36:01;10.82;;;2.63;;
69847;SDS011;57143;55.940;37.496;2022-12-29T09:38:29;10.50;;;2.78;;
69847;SDS011;57143;55.940;37.496;2022-12-29T09:40:59;13.37;;;3.67;;
69847;SDS011;57143;55.940;37.496;2022-12-29T09:46:31;10.38;;;3.30;;
69847;SDS011;57143;55.940;37.496;2022-12-29T09:49:07;6.45;;;2.17;;
69847;SDS011;57143;55.940;37.496;2022-12-29T09:51:41;7.50;;;2.60;;
69847;SDS011;57143;55.940;37.496;2022-12-29T09:54:19;7.57;;;2.50;;
69847;SDS011;57143;55.940;37.496;2022-12-29T09:56:51;14.23;;;3.58;;
69847;SDS011;57143;55.940;37.496;2022-12-29T09:59:20;9.07;;;3.03;;
69847;SDS011;57143;55.940;37.496;2022-12-29T10:01:51;5.72;;;1.90;;
69847;SDS011;57143;55.940;37.496;2022-12-29T10:04:26;11.93;;;2.95;;
69847;SDS011;57143;55.940;37.496;2022-12-29T10:06:56;8.00;;;3.47;;
69847;SDS011;57143;55.940;37.496;2022-12-29T10:09:26;9.52;;;2.58;;
69847;SDS011;57143;55.940;37.496;2022-12-29T10:12:03;8.23;;;2.90;;
69847;SDS011;57143;55.940;37.496;2022-12-29T10:14:47;8.10;;;2.67;;
69847;SDS011;57143;55.940;37.496;2022-12-29T10:17:26;13.25;;;3.63;;
69847;SDS011;57143;55.940;37.496;2022-12-29T10:22:59;9.32;;;3.42;;
69847;SDS011;57143;55.940;37.496;2022-12-29T10:25:48;9.73;;;3.22;;
69847;SDS011;57143;55.940;37.496;2022-12-29T10:28:17;11.95;;;3.03;;
69847;SDS011;57143;55.940;37.496;2022-12-29T10:30:47;10.55;;;3.35;;
69847;SDS011;57143;55.940;37.496;2022-12-29T10:33:17;7.20;;;3.10;;
69847;SDS011;57143;55.940;37.496;2022-12-29T10:35:48;9.85;;;3.60;;
69847;SDS011;57143;55.940;37.496;2022-12-29T10:38:18;9.70;;;3.53;;
69847;SDS011;57143;55.940;37.496;2022-12-29T10:40:53;10.02;;;3.28;;
69847;SDS011;57143;55.940;37.496;2022-12-29T10:43:25;12.40;;;3.90;;
69847;SDS011;57143;55.940;37.496;2022-12-29T10:45:54;7.73;;;2.77;;
69847;SDS011;57143;55.940;37.496;2022-12-29T10:48:25;10.18;;;3.42;;
69847;SDS011;57143;55.940;37.496;2022-12-29T10:50:56;7.53;;;2.47;;
69847;SDS011;57143;55.940;37.496;2022-12-29T10:53:26;6.90;;;2.42;;
69847;SDS011;57143;55.940;37.496;2022-12-29T10:56:00;12.32;;;3.00;;
69847;SDS011;57143;55.940;37.496;2022-12-29T10:58:30;7.67;;;2.13;;
69847;SDS011;57143;55.940;37.496;2022-12-29T11:00:57;9.60;;;2.50;;
69847;SDS011;57143;55.940;37.496;2022-12-29T11:06:23;9.07;;;2.97;;
69847;SDS011;57143;55.940;37.496;2022-12-29T11:08:53;13.85;;;5.35;;
69847;SDS011;57143;55.940;37.496;2022-12-29T11:11:24;9.57;;;3.70;;
69847;SDS011;57143;55.940;37.496;2022-12-29T11:13:57;11.88;;;4.20;;
69847;SDS011;57143;55.940;37.496;2022-12-29T11:16:29;8.57;;;3.58;;
69847;SDS011;57143;55.940;37.496;2022-12-29T11:18:58;8.02;;;2.60;;
69847;SDS011;57143;55.940;37.496;2022-12-29T11:21:29;8.77;;;3.50;;
69847;SDS011;57143;55.940;37.496;2022-12-29T11:23:59;11.43;;;3.53;;
69847;SDS011;57143;55.940;37.496;2022-12-29T11:26:28;11.25;;;3.10;;
69847;SDS011;57143;55.940;37.496;2022-12-29T11:29:14;8.45;;;3.50;;
69847;SDS011;57143;55.940;37.496;2022-12-29T11:31:46;13.00;;;3.58;;
69847;SDS011;57143;55.940;37.496;2022-12-29T11:34:18;9.40;;;3.72;;
69847;SDS011;57143;55.940;37.496;2022-12-29T11:36:49;13.03;;;4.60;;
69847;SDS011;57143;55.940;37.496;2022-12-29T11:39:24;12.13;;;3.78;;
69847;SDS011;57143;55.940;37.496;2022-12-29T11:41:55;13.15;;;4.28;;
69847;SDS011;57143;55.940;37.496;2022-12-29T11:44:23;11.63;;;4.05;;
69847;SDS011;57143;55.940;37.496;2022-12-29T11:46:51;12.82;;;4.10;;
69847;SDS011;57143;55.940;37.496;2022-12-29T11:49:19;11.37;;;4.10;;
69847;SDS011;57143;55.940;37.496;2022-12-29T11:51:51;11.48;;;4.28;;
69847;SDS011;57143;55.940;37.496;2022-12-29T11:54:22;10.27;;;3.72;;
69847;SDS011;57143;55.940;37.496;2022-12-29T11:56:52;10.85;;;4.20;;
69847;SDS011;57143;55.940;37.496;2022-12-29T11:59:25;13.05;;;5.05;;
69847;SDS011;57143;55.940;37.496;2022-12-29T12:02:10;11.10;;;4.53;;
69847;SDS011;57143;55.940;37.496;2022-12-29T12:04:53;14.20;;;4.50;;
69847;SDS011;57143;55.940;37.496;2022-12-29T12:07:32;12.73;;;4.00;;
69847;SDS011;57143;55.940;37.496;2022-12-29T12:10:06;9.05;;;3.63;;
69847;SDS011;57143;55.940;37.496;2022-12-29T12:12:41;17.10;;;4.32;;
69847;SDS011;57143;55.940;37.496;2022-12-29T12:15:15;14.87;;;4.20;;
69847;SDS011;57143;55.940;37.496;2022-12-29T12:17:49;12.23;;;4.38;;
69847;SDS011;57143;55.940;37.496;2022-12-29T12:20:21;14.27;;;5.35;;
69847;SDS011;57143;55.940;37.496;2022-12-29T12:22:58;9.80;;;3.38;;
69847;SDS011;57143;55.940;37.496;2022-12-29T12:25:30;12.52;;;4.45;;
69847;SDS011;57143;55.940;37.496;2022-12-29T12:28:04;10.43;;;3.83;;
69847;SDS011;57143;55.940;37.496;2022-12-29T12:30:38;11.27;;;3.80;;
69847;SDS011;57143;55.940;37.496;2022-12-29T12:33:14;11.02;;;3.55;;
69847;SDS011;57143;55.940;37.496;2022-12-29T12:35:51;13.30;;;4.70;;
69847;SDS011;57143;55.940;37.496;2022-12-29T12:38:34;12.18;;;4.25;;
69847;SDS011;57143;55.940;37.496;2022-12-29T12:41:08;12.30;;;4.63;;
69847;SDS011;57143;55.940;37.496;2022-12-29T12:43:39;10.65;;;4.43;;
69847;SDS011;57143;55.940;37.496;2022-12-29T12:46:16;13.10;;;4.43;;
69847;SDS011;57143;55.940;37.496;2022-12-29T12:49:20;13.80;;;4.20;;
69847;SDS011;57143;55.940;37.496;2022-12-29T12:52:05;12.63;;;4.47;;
69847;SDS011;57143;55.940;37.496;2022-12-29T12:54:44;13.20;;;4.33;;
69847;SDS011;57143;55.940;37.496;2022-12-29T12:57:31;10.15;;;3.88;;
69847;SDS011;57143;55.940;37.496;2022-12-29T13:00:11;13.77;;;3.53;;
69847;SDS011;57143;55.940;37.496;2022-12-29T13:02:46;11.63;;;4.13;;
69847;SDS011;57143;55.940;37.496;2022-12-29T13:05:30;11.63;;;3.65;;
69847;SDS011;57143;55.940;37.496;2022-12-29T13:08:29;14.63;;;4.20;;
69847;SDS011;57143;55.940;37.496;2022-12-29T13:11:14;14.88;;;4.85;;
69847;SDS011;57143;55.940;37.496;2022-12-29T13:13:51;13.00;;;4.07;;
69847;SDS011;57143;55.940;37.496;2022-12-29T13:16:37;12.05;;;4.40;;
69847;SDS011;57143;55.940;37.496;2022-12-29T13:19:14;12.13;;;4.35;;
69847;SDS011;57143;55.940;37.496;2022-12-29T13:21:54;14.07;;;4.73;;
69847;SDS011;57143;55.940;37.496;2022-12-29T13:24:31;13.10;;;4.88;;
69847;SDS011;57143;55.940;37.496;2022-12-29T13:27:11;15.65;;;5.20;;
69847;SDS011;57143;55.940;37.496;2022-12-29T13:29:44;15.38;;;5.95;;
69847;SDS011;57143;55.940;37.496;2022-12-29T13:32:23;14.13;;;5.68;;
69847;SDS011;57143;55.940;37.496;2022-12-29T13:35:02;22.20;;;7.77;;
69847;SDS011;57143;55.940;37.496;2022-12-29T13:37:51;16.52;;;7.88;;
69847;SDS011;57143;55.940;37.496;2022-12-29T13:40:22;16.90;;;6.03;;
69847;SDS011;57143;55.940;37.496;2022-12-29T13:42:53;21.70;;;7.80;;
69847;SDS011;57143;55.940;37.496;2022-12-29T13:45:24;14.77;;;5.20;;
69847;SDS011;57143;55.940;37.496;2022-12-29T13:47:55;16.37;;;5.90;;
69847;SDS011;57143;55.940;37.496;2022-12-29T13:50:27;19.77;;;6.18;;
69847;SDS011;57143;55.940;37.496;2022-12-29T13:52:59;15.63;;;6.53;;
69847;SDS011;57143;55.940;37.496;2022-12-29T13:55:37;13.32;;;5.55;;
69847;SDS011;57143;55.940;37.496;2022-12-29T13:58:13;16.25;;;6.00;;
69847;SDS011;57143;55.940;37.496;2022-12-29T14:00:48;16.33;;;6.07;;
69847;SDS011;57143;55.940;37.496;2022-12-29T14:03:27;17.02;;;5.65;;
69847;SDS011;57143;55.940;37.496;2022-12-29T14:06:12;16.38;;;5.80;;
69847;SDS011;57143;55.940;37.496;2022-12-29T14:08:45;20.27;;;7.22;;
69847;SDS011;57143;55.940;37.496;2022-12-29T14:11:14;16.88;;;6.85;;
69847;SDS011;57143;55.940;37.496;2022-12-29T14:13:45;18.37;;;6.90;;
69847;SDS011;57143;55.940;37.496;2022-12-29T14:16:24;15.68;;;6.35;;
69847;SDS011;57143;55.940;37.496;2022-12-29T14:19:06;20.65;;;8.05;;
69847;SDS011;57143;55.940;37.496;2022-12-29T14:21:39;20.92;;;8.18;;
69847;SDS011;57143;55.940;37.496;2022-12-29T14:24:27;19.85;;;8.63;;
69847;SDS011;57143;55.940;37.496;2022-12-29T14:33:17;19.55;;;7.10;;
69847;SDS011;57143;55.940;37.496;2022-12-29T14:35:45;27.77;;;11.05;;
69847;SDS011;57143;55.940;37.496;2022-12-29T14:38:18;22.70;;;8.95;;
69847;SDS011;57143;55.940;37.496;2022-12-29T14:40:48;19.07;;;6.87;;
69847;SDS011;57143;55.940;37.496;2022-12-29T14:43:20;15.88;;;6.40;;
69847;SDS011;57143;55.940;37.496;2022-12-29T14:46:00;15.05;;;5.75;;
69847;SDS011;57143;55.940;37.496;2022-12-29T14:48:39;14.43;;;5.15;;
69847;SDS011;57143;55.940;37.496;2022-12-29T14:51:17;15.50;;;5.72;;
69847;SDS011;57143;55.940;37.496;2022-12-29T14:53:57;10.77;;;4.17;;
69847;SDS011;57143;55.940;37.496;2022-12-29T14:56:25;15.00;;;5.85;;
69847;SDS011;57143;55.940;37.496;2022-12-29T14:58:57;18.05;;;6.47;;
69847;SDS011;57143;55.940;37.496;2022-12-29T15:01:34;21.20;;;6.30;;
69847;SDS011;57143;55.940;37.496;2022-12-29T15:04:13;14.98;;;6.95;;
69847;SDS011;57143;55.940;37.496;2022-12-29T15:06:41;16.30;;;6.43;;
69847;SDS011;57143;55.940;37.496;2022-12-29T15:09:14;21.25;;;7.43;;
69847;SDS011;57143;55.940;37.496;2022-12-29T15:11:52;20.33;;;6.95;;
69847;SDS011;57143;55.940;37.496;2022-12-29T15:14:31;17.23;;;6.60;;
69847;SDS011;57143;55.940;37.496;2022-12-29T15:17:10;20.30;;;6.88;;
69847;SDS011;57143;55.940;37.496;2022-12-29T15:19:50;21.07;;;6.40;;